createdAt,value
2022-10-12T00:01:41.997Z,6.63
2022-10-12T00:04:09.769Z,6.97
2022-10-12T00:06:37.098Z,7.23
2022-10-12T00:09:04.521Z,8.63
2022-10-12T00:11:31.872Z,8.00
2022-10-12T00:14:00.150Z,6.97
2022-10-12T00:16:31.430Z,7.43
2022-10-12T00:18:59.418Z,7.43
2022-10-12T00:21:28.209Z,7.00
2022-10-12T00:24:00.284Z,7.70
2022-10-12T00:26:28.316Z,7.60
2022-10-12T00:29:00.916Z,7.07
2022-10-12T00:31:29.617Z,8.13
2022-10-12T00:34:00.390Z,9.57
2022-10-12T00:36:32.506Z,9.53
2022-10-12T00:39:00.099Z,7.77
2022-10-12T00:41:32.384Z,8.53
2022-10-12T00:44:00.199Z,9.13
2022-10-12T00:46:37.480Z,9.93
2022-10-12T00:49:10.929Z,7.60
2022-10-12T00:51:40.059Z,9.27
2022-10-12T00:54:10.336Z,9.50
2022-10-12T00:56:40.255Z,10.63
2022-10-12T00:59:11.668Z,10.13
2022-10-12T01:01:39.605Z,10.73
2022-10-12T01:04:07.386Z,8.53
2022-10-12T01:06:35.165Z,13.83
2022-10-12T01:09:03.643Z,10.10
2022-10-12T01:11:31.010Z,11.07
2022-10-12T01:13:58.740Z,10.60
2022-10-12T01:17:07.744Z,10.10
2022-10-12T01:19:57.121Z,11.07
2022-10-12T01:22:24.676Z,9.93
2022-10-12T01:24:53.503Z,8.57
2022-10-12T01:27:45.560Z,8.80
2022-10-12T01:30:19.040Z,8.53
2022-10-12T01:33:27.662Z,8.83
2022-10-12T01:36:03.550Z,9.23
2022-10-12T01:38:56.785Z,10.30
2022-10-12T01:41:27.448Z,9.37
2022-10-12T01:43:54.825Z,11.80
2022-10-12T01:46:24.828Z,11.03
2022-10-12T01:48:58.444Z,9.90
2022-10-12T01:51:37.586Z,8.10
2022-10-12T01:54:30.044Z,8.97
2022-10-12T01:57:14.106Z,8.90
2022-10-12T02:00:13.514Z,8.90
2022-10-12T02:02:59.659Z,9.67
2022-10-12T02:05:47.717Z,9.20
2022-10-12T02:08:32.965Z,8.77
2022-10-12T02:11:10.408Z,9.77
2022-10-12T02:13:51.626Z,10.40
2022-10-12T02:16:22.353Z,10.47
2022-10-12T02:18:52.148Z,9.77
2022-10-12T02:21:26.106Z,9.30
2022-10-12T02:23:54.889Z,10.33
2022-10-12T02:26:22.630Z,9.63
2022-10-12T02:28:51.050Z,11.20
2022-10-12T02:31:21.199Z,9.60
2022-10-12T02:33:56.676Z,11.87
2022-10-12T02:36:35.028Z,9.30
2022-10-12T02:39:08.172Z,8.17
2022-10-12T02:41:40.574Z,10.53
2022-10-12T02:44:11.820Z,10.20
2022-10-12T02:46:40.734Z,10.13
2022-10-12T02:49:09.080Z,9.60
2022-10-12T02:51:36.910Z,8.33
2022-10-12T02:54:04.463Z,9.40
2022-10-12T02:56:31.782Z,9.90
2022-10-12T02:58:59.144Z,8.53
2022-10-12T03:01:26.520Z,11.27
2022-10-12T03:03:53.900Z,10.60
2022-10-12T03:06:21.510Z,9.60
2022-10-12T03:08:48.838Z,9.30
2022-10-12T03:11:16.171Z,11.73
2022-10-12T03:13:43.496Z,8.43
2022-10-12T03:16:11.701Z,10.20
2022-10-12T03:18:39.466Z,9.90
2022-10-12T03:21:06.906Z,9.33
2022-10-12T03:23:34.236Z,10.47
2022-10-12T03:26:01.566Z,8.70
2022-10-12T03:28:28.996Z,9.37
2022-10-12T03:30:57.089Z,10.93
2022-10-12T03:33:24.754Z,9.90
2022-10-12T03:35:52.163Z,9.70
2022-10-12T03:38:20.263Z,10.63
2022-10-12T03:40:47.992Z,10.70
2022-10-12T03:43:15.440Z,10.30
2022-10-12T03:45:42.745Z,11.20
2022-10-12T03:48:10.178Z,10.73
2022-10-12T03:50:37.477Z,10.37
2022-10-12T03:53:05.818Z,9.50
2022-10-12T03:55:33.817Z,9.80
2022-10-12T03:58:01.149Z,9.43
2022-10-12T04:00:29.800Z,8.80
2022-10-12T04:02:57.151Z,9.40
2022-10-12T04:05:24.640Z,11.10
2022-10-12T04:07:52.174Z,10.60
2022-10-12T04:10:19.541Z,11.63
2022-10-12T04:12:47.351Z,9.87
2022-10-12T04:15:14.872Z,10.60
2022-10-12T04:17:42.859Z,10.10
2022-10-12T04:20:11.365Z,9.93
2022-10-12T04:22:39.344Z,9.77
2022-10-12T04:25:07.111Z,9.50
2022-10-12T04:27:34.430Z,10.40
2022-10-12T04:30:01.777Z,11.37
2022-10-12T04:32:29.076Z,10.67
2022-10-12T04:34:56.394Z,10.47
2022-10-12T04:37:23.782Z,9.90
2022-10-12T04:39:51.101Z,10.00
2022-10-12T04:42:18.421Z,11.73
2022-10-12T04:44:45.701Z,9.80
2022-10-12T04:47:13.398Z,9.23
2022-10-12T04:49:40.738Z,9.77
2022-10-12T04:52:08.096Z,8.57
2022-10-12T04:54:35.390Z,9.40
2022-10-12T04:57:02.652Z,7.10
2022-10-12T04:59:29.962Z,8.30
2022-10-12T05:01:57.294Z,7.87
2022-10-12T05:04:24.758Z,7.93
2022-10-12T05:06:52.206Z,9.33
2022-10-12T05:09:19.543Z,8.67
2022-10-12T05:11:46.897Z,8.17
2022-10-12T05:14:14.266Z,7.90
2022-10-12T05:16:41.581Z,8.13
2022-10-12T05:19:09.020Z,9.63
2022-10-12T05:21:36.417Z,8.07
2022-10-12T05:24:03.845Z,8.80
2022-10-12T05:26:31.196Z,8.43
2022-10-12T05:28:58.504Z,9.13
2022-10-12T05:31:25.844Z,8.90
2022-10-12T05:33:53.161Z,9.43
2022-10-12T05:36:20.515Z,9.83
2022-10-12T05:38:48.847Z,9.17
2022-10-12T05:41:16.254Z,8.83
2022-10-12T05:43:43.584Z,8.13
2022-10-12T05:46:14.252Z,8.73
2022-10-12T05:48:41.987Z,8.40
2022-10-12T05:51:09.266Z,9.30
2022-10-12T05:53:37.798Z,9.30
2022-10-12T05:56:05.443Z,9.43
2022-10-12T05:58:32.828Z,9.53
2022-10-12T06:01:11.075Z,9.20
2022-10-12T06:03:38.390Z,9.57
2022-10-12T06:06:06.909Z,9.27
2022-10-12T06:08:34.855Z,8.17
2022-10-12T06:11:02.220Z,9.23
2022-10-12T06:13:29.531Z,8.63
2022-10-12T06:15:56.936Z,11.17
2022-10-12T06:18:24.294Z,10.73
2022-10-12T06:21:08.729Z,10.83
2022-10-12T06:23:40.468Z,9.53
2022-10-12T06:26:07.832Z,9.60
2022-10-12T06:28:35.265Z,10.40
2022-10-12T06:31:02.629Z,10.37
2022-10-12T06:33:30.174Z,10.30
2022-10-12T06:35:58.298Z,10.60
2022-10-12T06:38:25.769Z,10.40
2022-10-12T06:40:53.653Z,9.57
2022-10-12T06:43:22.740Z,11.80
2022-10-12T06:45:50.236Z,10.87
2022-10-12T06:48:18.772Z,11.03
2022-10-12T06:50:47.592Z,11.20
2022-10-12T06:53:14.972Z,11.60
2022-10-12T06:55:42.400Z,9.73
2022-10-12T06:58:09.741Z,9.70
2022-10-12T07:00:37.909Z,9.90
2022-10-12T07:03:05.377Z,9.97
2022-10-12T07:05:32.754Z,9.10
2022-10-12T07:08:00.096Z,9.00
2022-10-12T07:10:28.170Z,8.83
2022-10-12T07:12:55.440Z,9.73
2022-10-12T07:15:22.876Z,10.00
2022-10-12T07:17:50.495Z,11.90
2022-10-12T07:20:17.918Z,9.00
2022-10-12T07:22:45.316Z,10.80
2022-10-12T07:25:12.871Z,11.00
2022-10-12T07:27:40.811Z,11.27
2022-10-12T07:30:09.124Z,11.13
2022-10-12T07:32:36.423Z,10.83
2022-10-12T07:35:03.972Z,10.73
2022-10-12T07:37:31.292Z,11.00
2022-10-12T07:39:58.589Z,10.40
2022-10-12T07:42:26.289Z,11.20
2022-10-12T07:44:53.637Z,11.47
2022-10-12T07:47:21.000Z,10.57
2022-10-12T07:49:48.354Z,10.50
2022-10-12T07:52:15.690Z,9.70
2022-10-12T07:54:43.379Z,12.13
2022-10-12T07:57:10.734Z,11.87
2022-10-12T07:59:39.224Z,11.87
2022-10-12T08:02:06.552Z,8.07
2022-10-12T08:04:33.989Z,9.13
2022-10-12T08:07:01.267Z,7.80
2022-10-12T08:09:28.699Z,8.97
2022-10-12T08:11:56.463Z,8.20
2022-10-12T08:14:23.781Z,9.47
2022-10-12T08:16:51.094Z,9.30
2022-10-12T08:19:18.429Z,9.10
2022-10-12T08:21:45.938Z,8.80
2022-10-12T08:24:13.661Z,9.70
2022-10-12T08:26:41.105Z,9.47
2022-10-12T08:29:09.781Z,10.60
2022-10-12T08:31:37.437Z,9.50
2022-10-12T08:34:06.037Z,10.07
2022-10-12T08:36:33.576Z,13.60
2022-10-12T08:39:01.207Z,13.50
2022-10-12T08:41:52.015Z,13.90
2022-10-12T08:44:37.791Z,13.13
2022-10-12T08:47:31.966Z,15.37
2022-10-12T08:50:00.597Z,14.37
2022-10-12T08:52:34.929Z,15.53
2022-10-12T08:55:26.726Z,16.00
2022-10-12T08:57:54.052Z,17.63
2022-10-12T09:00:21.430Z,15.63
2022-10-12T09:03:02.064Z,14.60
2022-10-12T09:05:40.532Z,16.90
2022-10-12T09:08:14.286Z,14.60
2022-10-12T09:10:47.548Z,13.23
2022-10-12T09:13:53.201Z,14.27
2022-10-12T09:16:25.155Z,13.80
2022-10-12T09:18:57.631Z,13.20
2022-10-12T09:21:26.746Z,12.40
2022-10-12T09:23:56.680Z,14.17
2022-10-12T09:26:35.626Z,13.30
2022-10-12T09:29:12.420Z,12.93
2022-10-12T09:31:52.698Z,12.43
2022-10-12T09:34:20.629Z,11.77
2022-10-12T09:36:47.973Z,12.07
2022-10-12T09:39:23.409Z,11.70
2022-10-12T09:41:52.978Z,11.83
2022-10-12T09:44:34.179Z,11.10
2022-10-12T09:47:04.421Z,10.60
2022-10-12T09:49:50.229Z,10.00
2022-10-12T09:52:30.561Z,11.47
2022-10-12T09:55:05.154Z,10.70
2022-10-12T09:57:44.770Z,9.43
2022-10-12T10:00:35.858Z,10.90
2022-10-12T10:03:03.938Z,10.00
2022-10-12T10:05:36.846Z,9.23
2022-10-12T10:08:23.419Z,11.60
2022-10-12T10:10:53.495Z,10.97
2022-10-12T10:13:22.999Z,10.60
2022-10-12T10:16:03.955Z,11.23
2022-10-12T10:18:38.983Z,11.47
2022-10-12T10:21:09.388Z,10.70
2022-10-12T10:23:55.594Z,10.47
2022-10-12T10:26:24.077Z,10.27
2022-10-12T10:28:57.468Z,10.87
2022-10-12T10:31:29.113Z,9.03
2022-10-12T10:34:12.606Z,10.77
2022-10-12T10:36:52.242Z,9.60
2022-10-12T10:39:32.870Z,10.90
2022-10-12T10:42:20.364Z,10.80
2022-10-12T10:44:51.000Z,11.67
2022-10-12T10:47:18.764Z,9.80
2022-10-12T10:49:50.230Z,9.00
2022-10-12T10:52:24.429Z,11.47
2022-10-12T10:55:18.694Z,9.43
2022-10-12T10:58:05.684Z,10.90
2022-10-12T11:00:40.161Z,10.00
2022-10-12T11:03:23.225Z,11.00
2022-10-12T11:05:58.219Z,11.33
2022-10-12T11:08:27.432Z,11.60
2022-10-12T11:11:11.030Z,10.83
2022-10-12T11:14:15.891Z,11.77
2022-10-12T11:16:52.830Z,10.03
2022-10-12T11:19:30.822Z,12.00
2022-10-12T11:22:03.940Z,11.70
2022-10-12T11:24:40.192Z,11.30
2022-10-12T11:27:32.524Z,11.60
2022-10-12T11:30:09.352Z,11.37
2022-10-12T11:32:46.093Z,10.23
2022-10-12T11:35:37.585Z,10.97
2022-10-12T11:38:17.456Z,11.00
2022-10-12T11:44:18.486Z,11.73
2022-10-12T11:46:59.411Z,11.27
2022-10-12T11:49:31.484Z,9.47
2022-10-12T11:52:03.586Z,10.43
2022-10-12T11:54:44.612Z,10.40
2022-10-12T11:57:25.325Z,11.53
2022-10-12T11:59:59.191Z,10.80
2022-10-12T12:02:30.172Z,10.40
2022-10-12T12:04:58.885Z,10.50
2022-10-12T12:07:41.945Z,11.30
2022-10-12T12:10:37.107Z,10.60
2022-10-12T12:13:19.170Z,8.70
2022-10-12T12:15:52.418Z,10.53
2022-10-12T12:18:21.003Z,10.57
2022-10-12T12:20:48.258Z,9.27
2022-10-12T12:23:32.077Z,9.53
2022-10-12T12:26:05.337Z,9.20
2022-10-12T12:28:33.500Z,10.23
2022-10-12T12:31:03.275Z,10.43
2022-10-12T12:33:36.122Z,10.63
2022-10-12T12:36:06.435Z,9.90
2022-10-12T12:38:44.681Z,10.53
2022-10-12T12:41:23.739Z,10.20
2022-10-12T12:44:01.961Z,9.33
2022-10-12T12:46:52.291Z,9.57
2022-10-12T12:49:41.552Z,8.87
2022-10-12T12:52:22.476Z,9.83
2022-10-12T12:55:01.587Z,8.87
2022-10-12T12:57:58.395Z,8.43
2022-10-12T13:00:32.446Z,8.83
2022-10-12T13:03:23.761Z,8.90
2022-10-12T13:06:17.684Z,8.43
2022-10-12T13:09:01.239Z,8.43
2022-10-12T13:12:06.594Z,7.43
2022-10-12T13:14:40.827Z,8.80
2022-10-12T13:17:34.895Z,8.23
2022-10-12T13:20:23.180Z,8.47
2022-10-12T13:22:51.870Z,6.97
2022-10-12T13:25:29.097Z,7.77
2022-10-12T13:27:56.688Z,8.70
2022-10-12T13:30:49.262Z,6.90
2022-10-12T13:33:32.361Z,8.57
2022-10-12T13:36:06.038Z,9.00
2022-10-12T13:38:38.486Z,7.07
2022-10-12T13:41:14.797Z,8.40
2022-10-12T13:44:05.587Z,7.17
2022-10-12T13:46:39.782Z,9.70
2022-10-12T13:49:17.629Z,6.73
2022-10-12T13:51:47.372Z,8.00
2022-10-12T13:54:23.730Z,8.33
2022-10-12T13:57:02.458Z,10.63
2022-10-12T13:59:35.759Z,8.77
2022-10-12T14:02:03.718Z,6.77
2022-10-12T14:04:33.673Z,7.90
2022-10-12T14:07:05.953Z,7.80
2022-10-12T14:09:47.217Z,7.77
2022-10-12T14:12:14.918Z,5.53
2022-10-12T14:14:44.773Z,7.53
2022-10-12T14:17:16.791Z,8.00
2022-10-12T14:19:47.899Z,7.73
2022-10-12T14:22:30.414Z,6.80
2022-10-12T14:25:19.881Z,7.73
2022-10-12T14:27:47.438Z,6.93
2022-10-12T14:30:21.302Z,7.17
2022-10-12T14:32:49.736Z,7.70
2022-10-12T14:35:25.607Z,7.67
2022-10-12T14:37:54.911Z,6.97
2022-10-12T14:40:30.171Z,7.03
2022-10-12T14:43:07.861Z,6.77
2022-10-12T14:45:35.270Z,7.80
2022-10-12T14:48:02.976Z,8.60
2022-10-12T14:50:31.714Z,7.60
2022-10-12T14:53:05.018Z,7.47
2022-10-12T14:55:33.793Z,7.33
2022-10-12T14:58:01.215Z,6.67
2022-10-12T15:00:31.289Z,6.97
2022-10-12T15:02:58.912Z,8.07
2022-10-12T15:05:31.935Z,8.30
2022-10-12T15:08:00.295Z,8.60
2022-10-12T15:10:29.845Z,9.00
2022-10-12T15:12:57.148Z,7.73
2022-10-12T15:15:42.219Z,8.50
2022-10-12T15:18:09.633Z,8.87
2022-10-12T15:20:37.511Z,7.10
2022-10-12T15:23:05.376Z,7.70
2022-10-12T15:25:40.161Z,7.10
2022-10-12T15:28:07.486Z,6.70
2022-10-12T15:30:36.053Z,8.07
2022-10-12T15:33:07.619Z,6.77
2022-10-12T15:35:35.957Z,6.80
2022-10-12T15:38:03.594Z,6.23
2022-10-12T15:40:32.233Z,6.57
2022-10-12T15:42:59.788Z,7.20
2022-10-12T15:45:31.838Z,6.57
2022-10-12T15:47:59.567Z,5.43
2022-10-12T15:50:29.323Z,6.13
2022-10-12T15:52:57.140Z,7.03
2022-10-12T15:55:26.848Z,6.73
2022-10-12T15:57:54.692Z,6.00
2022-10-12T16:00:26.028Z,5.73
2022-10-12T16:02:54.959Z,6.67
2022-10-12T16:05:28.301Z,6.40
2022-10-12T16:07:55.955Z,5.80
2022-10-12T16:10:31.955Z,6.57
2022-10-12T16:12:59.529Z,5.67
2022-10-12T16:15:31.399Z,6.27
2022-10-12T16:18:00.336Z,5.90
2022-10-12T16:20:29.130Z,5.57
2022-10-12T16:22:56.785Z,5.93
2022-10-12T16:25:25.058Z,6.10
2022-10-12T16:27:53.534Z,7.00
2022-10-12T16:30:21.907Z,8.37
2022-10-12T16:32:49.576Z,6.77
2022-10-12T16:35:17.234Z,6.50
2022-10-12T16:37:44.691Z,6.03
2022-10-12T16:40:12.644Z,6.60
2022-10-12T16:42:39.960Z,6.47
2022-10-12T16:45:07.933Z,6.23
2022-10-12T16:47:38.944Z,6.67
2022-10-12T16:50:10.506Z,5.60
2022-10-12T16:52:37.944Z,7.63
2022-10-12T16:55:06.071Z,6.40
2022-10-12T16:57:33.405Z,7.50
2022-10-12T17:00:01.038Z,7.80
2022-10-12T17:02:28.383Z,6.70
2022-10-12T17:04:55.731Z,7.77
2022-10-12T17:07:23.245Z,8.10
2022-10-12T17:09:50.840Z,8.20
2022-10-12T17:12:18.572Z,7.47
2022-10-12T17:14:46.302Z,8.53
2022-10-12T17:17:13.569Z,7.33
2022-10-12T17:19:41.197Z,8.60
2022-10-12T17:22:09.965Z,8.40
2022-10-12T17:24:39.075Z,8.73
2022-10-12T17:27:08.620Z,8.47
2022-10-12T17:29:42.305Z,8.60
2022-10-12T17:32:10.720Z,8.10
2022-10-12T17:34:43.334Z,8.80
2022-10-12T17:37:13.414Z,8.77
2022-10-12T17:39:44.875Z,16.03
2022-10-12T17:42:13.220Z,22.43
2022-10-12T17:44:40.747Z,29.50
2022-10-12T17:47:08.050Z,28.33
2022-10-12T17:49:35.422Z,31.47
2022-10-12T17:52:02.776Z,9.57
2022-10-12T17:54:30.275Z,11.33
2022-10-12T17:56:57.754Z,18.70
2022-10-12T17:59:26.030Z,19.20
2022-10-12T18:01:53.695Z,12.57
2022-10-12T18:04:21.653Z,14.13
2022-10-12T18:06:48.971Z,10.53
2022-10-12T18:09:16.525Z,10.70
2022-10-12T18:11:44.462Z,10.03
2022-10-12T18:14:13.286Z,9.90
2022-10-12T18:16:40.696Z,11.30
2022-10-12T18:19:10.233Z,11.67
2022-10-12T18:21:37.921Z,10.80
2022-10-12T18:24:09.329Z,10.73
2022-10-12T18:26:39.034Z,11.50
2022-10-12T18:29:06.424Z,12.13
2022-10-12T18:31:33.753Z,11.57
2022-10-12T18:34:03.001Z,10.40
2022-10-12T18:36:30.249Z,10.47
2022-10-12T18:39:01.197Z,8.90
2022-10-12T18:41:28.632Z,9.50
2022-10-12T18:44:00.347Z,9.90
2022-10-12T18:46:29.573Z,10.50
2022-10-12T18:48:57.008Z,10.53
2022-10-12T18:51:32.932Z,10.33
2022-10-12T18:54:01.021Z,11.27
2022-10-12T18:56:29.664Z,10.40
2022-10-12T18:58:57.941Z,10.43
2022-10-12T19:01:26.899Z,9.80
2022-10-12T19:03:55.648Z,10.47
2022-10-12T19:06:25.955Z,9.87
2022-10-12T19:08:55.334Z,11.07
2022-10-12T19:11:23.933Z,10.80
2022-10-12T19:13:59.533Z,11.53
2022-10-12T19:16:27.253Z,10.53
2022-10-12T19:18:59.737Z,11.63
2022-10-12T19:21:27.324Z,10.20
2022-10-12T19:23:55.032Z,10.80
2022-10-12T19:26:25.354Z,11.10
2022-10-12T19:28:55.268Z,12.33
2022-10-12T19:31:37.413Z,13.03
2022-10-12T19:34:10.662Z,12.33
2022-10-12T19:36:38.957Z,11.93
2022-10-12T19:39:13.105Z,11.33
2022-10-12T19:41:40.532Z,9.93
2022-10-12T19:44:08.005Z,12.27
2022-10-12T19:46:35.410Z,9.77
2022-10-12T19:49:02.728Z,10.17
2022-10-12T19:51:31.921Z,10.20
2022-10-12T19:54:04.865Z,9.70
2022-10-12T19:56:32.859Z,10.37
2022-10-12T19:59:00.286Z,10.07
2022-10-12T20:01:29.903Z,9.83
2022-10-12T20:03:57.382Z,10.00
2022-10-12T20:06:27.327Z,10.90
2022-10-12T20:08:56.200Z,10.80
2022-10-12T20:11:24.905Z,11.20
2022-10-12T20:13:52.752Z,11.07
2022-10-12T20:16:21.209Z,9.93
2022-10-12T20:18:49.344Z,12.30
2022-10-12T20:21:19.138Z,11.60
2022-10-12T20:23:46.950Z,11.10
2022-10-12T20:26:17.273Z,12.73
2022-10-12T20:28:44.995Z,12.30
2022-10-12T20:31:13.128Z,11.37
2022-10-12T20:33:41.081Z,11.17
2022-10-12T20:36:13.579Z,11.57
2022-10-12T20:38:41.011Z,10.17
2022-10-12T20:41:10.602Z,10.50
2022-10-12T20:43:40.408Z,9.40
2022-10-12T20:46:10.840Z,9.20
2022-10-12T20:48:40.271Z,10.13
2022-10-12T20:51:09.436Z,9.80
2022-10-12T20:53:37.861Z,10.87
2022-10-12T20:56:06.682Z,10.00
2022-10-12T20:58:34.078Z,11.23
2022-10-12T21:01:13.024Z,9.80
2022-10-12T21:03:41.165Z,9.13
2022-10-12T21:06:13.513Z,8.63
2022-10-12T21:08:40.974Z,8.60
2022-10-12T21:11:09.787Z,10.80
2022-10-12T21:13:40.998Z,9.60
2022-10-12T21:16:09.873Z,9.37
2022-10-12T21:18:38.528Z,8.97
2022-10-12T21:21:12.763Z,8.20
2022-10-12T21:23:44.611Z,10.50
2022-10-12T21:26:16.483Z,9.97
2022-10-12T21:28:44.221Z,8.83
2022-10-12T21:31:12.156Z,9.60
2022-10-12T21:33:40.041Z,9.03
2022-10-12T21:36:12.450Z,10.80
2022-10-12T21:38:40.455Z,11.50
2022-10-12T21:41:09.305Z,11.80
2022-10-12T21:43:37.786Z,10.87
2022-10-12T21:46:10.877Z,11.47
2022-10-12T21:48:38.644Z,11.70
2022-10-12T21:51:07.121Z,11.67
2022-10-12T21:53:35.926Z,13.47
2022-10-12T21:56:23.613Z,11.87
2022-10-12T21:58:52.005Z,11.70
2022-10-12T22:01:22.123Z,11.10
2022-10-12T22:03:56.905Z,9.70
2022-10-12T22:06:25.689Z,10.27
2022-10-12T22:08:55.691Z,10.70
2022-10-12T22:11:23.641Z,10.03
2022-10-12T22:13:51.476Z,10.73
2022-10-12T22:16:19.347Z,11.10
2022-10-12T22:18:46.719Z,11.30
2022-10-12T22:21:16.320Z,10.73
2022-10-12T22:23:44.289Z,10.50
2022-10-12T22:26:15.811Z,10.80
2022-10-12T22:28:53.903Z,10.33
2022-10-12T22:31:22.546Z,11.40
2022-10-12T22:33:50.394Z,11.23
2022-10-12T22:36:17.923Z,10.33
2022-10-12T22:38:45.688Z,9.23
2022-10-12T22:41:21.271Z,10.67
2022-10-12T22:43:49.992Z,10.30
2022-10-12T22:46:18.044Z,8.93
2022-10-12T22:48:45.491Z,10.33
2022-10-12T22:51:16.943Z,9.60
2022-10-12T22:53:44.391Z,10.00
2022-10-12T22:56:17.011Z,9.67
2022-10-12T22:58:45.290Z,9.20
2022-10-12T23:01:14.652Z,8.60
2022-10-12T23:03:42.073Z,9.07
2022-10-12T23:06:15.898Z,8.90
2022-10-12T23:08:43.765Z,9.80
2022-10-12T23:11:22.218Z,8.50
2022-10-12T23:13:50.042Z,9.67
2022-10-12T23:16:20.656Z,8.10
2022-10-12T23:18:48.336Z,11.77
2022-10-12T23:21:17.528Z,11.67
2022-10-12T23:23:45.856Z,13.73
2022-10-12T23:26:17.020Z,14.10
2022-10-12T23:28:44.614Z,12.80
2022-10-12T23:31:21.961Z,12.77
2022-10-12T23:34:03.972Z,14.50
2022-10-12T23:36:31.490Z,14.63
2022-10-12T23:39:03.440Z,12.77
2022-10-12T23:41:30.687Z,11.53
2022-10-12T23:43:58.038Z,10.57
2022-10-12T23:46:25.047Z,11.90
2022-10-12T23:48:53.945Z,10.97
2022-10-12T23:51:20.893Z,10.57
2022-10-12T23:53:47.862Z,10.93
2022-10-12T23:56:14.866Z,9.17
2022-10-12T23:58:41.938Z,9.80
